Time;durP1;ratioP1;P1;durP2;ratioP2;P2;SDS_P1;SDS_P2;PMS_P1;PMS_P2;Temp;Humidity;BMP_temperature;BMP_pressure;BME280_temperature;BME280_humidity;BME280_pressure;Samples;Min_cycle;Max_cycle;Signal;HPM_P1;HPM_P2
2022/10/04 00:00:22;;;;;;;20.13;8.60;;;12.50;99.90;;;;;;5053189;28;20397;-60
2022/10/04 00:02:49;;;;;;;18.90;8.38;;;12.20;99.90;;;;;;5054532;28;20408;-60
2022/10/04 00:05:19;;;;;;;19.42;8.50;;;12.20;99.90;;;;;;5054285;28;20041;-60
2022/10/04 00:07:51;;;;;;;15.65;8.70;;;12.10;99.90;;;;;;5054169;28;20055;-60
2022/10/04 00:10:30;;;;;;;15.60;8.63;;;12.60;99.90;;;;;;5053880;28;20061;-60
2022/10/04 00:13:14;;;;;;;18.95;8.43;;;12.20;99.90;;;;;;5052794;28;20040;-60
2022/10/04 00:15:40;;;;;;;18.92;8.65;;;12.50;99.90;;;;;;5053916;28;20090;-60
2022/10/04 00:18:37;;;;;;;19.40;8.55;;;12.30;99.90;;;;;;5054011;28;20041;-60
2022/10/04 00:21:04;;;;;;;20.20;9.00;;;12.10;99.90;;;;;;5053981;28;20041;-60
2022/10/04 00:23:36;;;;;;;20.17;9.20;;;12.10;99.90;;;;;;5053939;28;20528;-60
2022/10/04 00:26:14;;;;;;;19.23;9.10;;;12.00;99.90;;;;;;5053822;28;20051;-60
2022/10/04 00:28:48;;;;;;;16.15;8.80;;;12.10;99.90;;;;;;5053870;28;20049;-60
2022/10/04 00:31:24;;;;;;;16.75;9.60;;;12.10;99.90;;;;;;5053800;28;20048;-60
2022/10/04 00:34:05;;;;;;;28.02;10.10;;;12.00;99.90;;;;;;5052874;28;20385;-60
2022/10/04 00:36:44;;;;;;;21.25;9.93;;;12.20;99.90;;;;;;5053837;28;20048;-60
2022/10/04 00:39:10;;;;;;;18.80;9.70;;;12.40;99.90;;;;;;5053768;28;20095;-60
2022/10/04 00:41:48;;;;;;;19.35;10.05;;;12.50;99.90;;;;;;5053682;28;20106;-60
2022/10/04 00:44:35;;;;;;;18.75;9.88;;;12.00;99.90;;;;;;5053815;28;20512;-60
2022/10/04 00:47:04;;;;;;;21.92;10.10;;;12.50;99.90;;;;;;5053678;28;20044;-59
2022/10/04 00:49:38;;;;;;;25.35;9.95;;;12.20;99.90;;;;;;5053482;28;20103;-59
2022/10/04 00:52:14;;;;;;;23.75;10.68;;;12.30;99.90;;;;;;5053743;28;20362;-59
2022/10/04 00:54:50;;;;;;;22.77;9.98;;;12.20;99.90;;;;;;5052436;28;20036;-59
2022/10/04 00:57:29;;;;;;;21.10;9.82;;;12.20;99.90;;;;;;5053446;28;20116;-59
2022/10/04 01:00:00;;;;;;;17.90;10.18;;;12.20;99.90;;;;;;5053435;28;20029;-59
2022/10/04 01:02:45;;;;;;;22.92;10.15;;;12.50;99.90;;;;;;5053399;28;20052;-59
2022/10/04 01:05:32;;;;;;;23.73;10.50;;;12.20;99.90;;;;;;5053254;28;20037;-59
2022/10/04 01:08:13;;;;;;;21.42;10.02;;;12.10;99.90;;;;;;5053254;28;20405;-59
2022/10/04 01:11:19;;;;;;;18.98;9.38;;;12.20;99.90;;;;;;5052844;28;20493;-59
2022/10/04 01:13:50;;;;;;;23.13;9.23;;;12.00;99.90;;;;;;5047527;28;20500;-59
2022/10/04 01:16:28;;;;;;;19.75;9.15;;;12.10;99.90;;;;;;5053218;28;20492;-59
2022/10/04 01:18:55;;;;;;;20.00;9.90;;;12.20;99.90;;;;;;5053144;28;20496;-59
2022/10/04 01:21:29;;;;;;;23.75;9.32;;;12.00;99.90;;;;;;5053001;28;20045;-59
2022/10/04 01:23:56;;;;;;;18.27;9.48;;;12.00;99.90;;;;;;5053042;28;20525;-59
2022/10/04 01:26:28;;;;;;;24.02;9.50;;;12.30;99.90;;;;;;5053103;28;20053;-59
2022/10/04 01:29:31;;;;;;;16.75;9.68;;;11.80;99.90;;;;;;5052984;28;20493;-59
2022/10/04 01:32:00;;;;;;;21.93;9.87;;;;;;;;;;5053247;28;20124;-59
2022/10/04 01:34:29;;;;;;;16.35;9.18;;;11.90;99.90;;;;;;5052985;28;20571;-59
2022/10/04 01:36:59;;;;;;;18.25;9.23;;;11.90;99.90;;;;;;5053083;28;20037;-59
2022/10/04 01:39:27;;;;;;;24.20;9.43;;;11.70;99.90;;;;;;5057026;28;20064;-59
2022/10/04 01:41:53;;;;;;;24.42;10.38;;;;;;;;;;5057012;28;20036;-59
2022/10/04 01:44:31;;;;;;;22.95;10.25;;;12.00;99.90;;;;;;5057266;28;20052;-59
2022/10/04 01:47:01;;;;;;;22.08;9.95;;;11.20;99.90;;;;;;5057068;28;20033;-59
2022/10/04 01:49:31;;;;;;;18.77;9.60;;;12.00;99.90;;;;;;5057084;28;20481;-59
2022/10/04 01:52:21;;;;;;;23.80;10.00;;;11.80;99.90;;;;;;5056897;28;20107;-59
2022/10/04 01:55:11;;;;;;;24.13;10.80;;;12.00;99.90;;;;;;5056994;28;20037;-59
2022/10/04 01:57:41;;;;;;;21.25;10.13;;;11.90;99.90;;;;;;5057021;28;20049;-59
2022/10/04 02:00:11;;;;;;;20.30;10.25;;;11.90;99.90;;;;;;5056822;28;20045;-59
2022/10/04 02:03:04;;;;;;;22.45;10.43;;;11.90;99.90;;;;;;5056592;28;20119;-59
2022/10/04 02:05:43;;;;;;;16.92;9.70;;;12.20;99.90;;;;;;5056732;28;20049;-59
2022/10/04 02:08:12;;;;;;;18.27;9.77;;;11.80;99.90;;;;;;5056961;28;20045;-59
2022/10/04 02:10:43;;;;;;;21.23;10.02;;;12.80;99.90;;;;;;5056542;28;20060;-59
2022/10/04 02:13:16;;;;;;;24.00;9.93;;;12.30;99.90;;;;;;5056300;28;20049;-59
2022/10/04 02:15:43;;;;;;;17.65;9.88;;;12.10;99.90;;;;;;5056377;28;20037;-59
2022/10/04 02:18:13;;;;;;;20.02;9.60;;;12.00;99.90;;;;;;5056488;28;20488;-59
2022/10/04 02:20:41;;;;;;;25.33;10.15;;;11.80;99.90;;;;;;5056448;28;20041;-60
2022/10/04 02:23:11;;;;;;;20.48;9.82;;;11.90;99.90;;;;;;5056284;28;20037;-60
2022/10/04 02:25:37;;;;;;;18.13;9.52;;;12.40;99.90;;;;;;5056097;28;20044;-59
2022/10/04 02:28:09;;;;;;;24.98;9.52;;;12.80;99.90;;;;;;5056088;28;20508;-59
2022/10/04 02:30:37;;;;;;;18.08;9.82;;;12.00;99.90;;;;;;5055276;28;20116;-59
2022/10/04 02:33:03;;;;;;;22.48;9.80;;;11.70;99.90;;;;;;5056204;28;20036;-59
2022/10/04 02:35:43;;;;;;;19.92;9.15;;;12.20;99.90;;;;;;5056016;28;20413;-59
2022/10/04 02:38:12;;;;;;;22.52;10.15;;;11.90;99.90;;;;;;5056000;28;20048;-59
2022/10/04 02:41:04;;;;;;;22.05;9.80;;;11.90;99.90;;;;;;5056138;28;20120;-59
2022/10/04 02:43:44;;;;;;;19.85;9.73;;;12.10;99.90;;;;;;5056073;28;20047;-59
2022/10/04 02:46:20;;;;;;;23.63;9.90;;;12.00;99.90;;;;;;5055879;28;20489;-59
2022/10/04 02:48:57;;;;;;;19.67;10.55;;;11.90;99.90;;;;;;5054931;28;20037;-59
2022/10/04 02:51:24;;;;;;;22.05;10.10;;;;;;;;;;5054296;28;20039;-59
2022/10/04 02:54:20;;;;;;;21.63;9.77;;;11.90;99.90;;;;;;5055831;28;20045;-59
2022/10/04 02:56:54;;;;;;;19.42;9.35;;;11.70;99.90;;;;;;5055560;28;20477;-60
2022/10/04 02:59:21;;;;;;;21.52;9.88;;;11.70;99.90;;;;;;5056000;28;20484;-59
2022/10/04 03:01:59;;;;;;;23.98;9.80;;;11.90;99.90;;;;;;5055527;28;20037;-59
2022/10/04 03:04:33;;;;;;;19.98;9.73;;;11.80;99.90;;;;;;5055588;28;20139;-59
2022/10/04 03:07:03;;;;;;;21.02;9.77;;;12.60;99.90;;;;;;5055635;28;20091;-59
2022/10/04 03:09:29;;;;;;;22.20;10.77;;;11.70;99.90;;;;;;5055553;28;20048;-60
2022/10/04 03:11:56;;;;;;;20.67;10.25;;;12.30;99.90;;;;;;5055243;28;20053;-59
2022/10/04 03:14:24;;;;;;;21.48;10.05;;;11.60;99.90;;;;;;5055346;28;20049;-59
2022/10/04 03:16:55;;;;;;;21.10;10.70;;;11.70;99.90;;;;;;5055302;28;20366;-59
2022/10/04 03:19:25;;;;;;;22.73;10.10;;;11.70;99.90;;;;;;5055335;28;20146;-59
2022/10/04 03:22:06;;;;;;;20.40;10.48;;;11.60;99.90;;;;;;5054684;28;20085;-59
2022/10/04 03:24:54;;;;;;;23.02;10.50;;;10.60;99.90;;;;;;5055554;28;20045;-59
2022/10/04 03:27:33;;;;;;;19.80;11.02;;;11.50;99.90;;;;;;5055127;28;20052;-59
2022/10/04 03:30:01;;;;;;;20.98;11.00;;;11.40;99.90;;;;;;5055209;28;20049;-59
2022/10/04 03:32:29;;;;;;;20.27;10.85;;;11.60;99.90;;;;;;5054164;28;20139;-59
2022/10/04 03:35:02;;;;;;;22.00;11.13;;;11.60;99.90;;;;;;5054951;28;20037;-59
2022/10/04 03:37:33;;;;;;;23.33;12.18;;;11.50;99.90;;;;;;5055118;28;20033;-59
2022/10/04 03:40:03;;;;;;;27.02;11.75;;;10.50;99.90;;;;;;5054844;28;20041;-59
2022/10/04 03:42:33;;;;;;;20.15;11.30;;;11.50;99.90;;;;;;5054816;28;20037;-59
2022/10/04 03:45:07;;;;;;;21.27;11.27;;;12.30;99.90;;;;;;5054755;28;20116;-59
2022/10/04 03:47:41;;;;;;;20.70;11.52;;;11.40;99.90;;;;;;5054871;28;20075;-59
2022/10/04 03:50:33;;;;;;;23.15;12.00;;;11.50;99.90;;;;;;5054975;28;20480;-59
2022/10/04 03:53:22;;;;;;;21.65;11.82;;;11.40;99.90;;;;;;5053469;28;20048;-59
2022/10/04 03:55:51;;;;;;;21.90;11.95;;;;;;;;;;5054848;28;20041;-59
2022/10/04 03:58:18;;;;;;;26.40;12.10;;;11.40;99.90;;;;;;5054357;28;20059;-59
2022/10/04 04:01:13;;;;;;;25.05;13.52;;;11.40;99.90;;;;;;5054112;28;20404;-59
2022/10/04 04:04:05;;;;;;;26.30;13.55;;;12.30;99.90;;;;;;5054215;28;20434;-59
2022/10/04 04:07:04;;;;;;;27.67;13.35;;;10.50;99.90;;;;;;5049329;28;20168;-59
2022/10/04 04:09:52;;;;;;;26.08;13.35;;;11.40;99.90;;;;;;5053264;28;20520;-59
2022/10/04 04:12:25;;;;;;;26.77;14.23;;;11.30;99.90;;;;;;5052789;28;20041;-59
2022/10/04 04:14:53;;;;;;;24.65;13.90;;;11.30;99.90;;;;;;5051421;28;20036;-59
2022/10/04 04:17:24;;;;;;;24.20;13.40;;;11.30;99.90;;;;;;5053045;28;20037;-59
2022/10/04 04:19:51;;;;;;;22.63;12.88;;;10.70;99.90;;;;;;5054028;28;20106;-59
2022/10/04 04:22:21;;;;;;;26.75;13.48;;;;;;;;;;5053898;28;20097;-59
2022/10/04 04:24:49;;;;;;;26.17;13.40;;;11.30;99.90;;;;;;5054209;28;20037;-59
2022/10/04 04:27:17;;;;;;;24.67;13.38;;;11.10;99.90;;;;;;5054106;28;20048;-59
2022/10/04 04:29:52;;;;;;;28.73;15.20;;;11.20;99.90;;;;;;5054035;28;20036;-59
2022/10/04 04:32:24;;;;;;;28.38;13.70;;;11.20;99.90;;;;;;5051935;28;20041;-59
2022/10/04 04:34:57;;;;;;;28.25;14.73;;;12.10;99.90;;;;;;5053258;28;20582;-59
2022/10/04 04:37:23;;;;;;;24.85;14.35;;;;;;;;;;5045115;28;20033;-59
2022/10/04 04:39:53;;;;;;;26.73;14.23;;;11.10;99.90;;;;;;5045687;28;20041;-59
2022/10/04 04:42:33;;;;;;;27.27;14.88;;;12.20;99.90;;;;;;5052757;28;20481;-59
2022/10/04 04:45:13;;;;;;;25.52;14.75;;;11.10;99.90;;;;;;5052270;28;20049;-59
2022/10/04 04:47:43;;;;;;;28.42;15.27;;;11.20;99.90;;;;;;5052701;28;20037;-60
2022/10/04 04:50:14;;;;;;;25.00;15.15;;;11.10;99.90;;;;;;5051368;28;20037;-60
2022/10/04 04:52:43;;;;;;;26.35;15.32;;;11.10;99.90;;;;;;5040668;28;20120;-60
2022/10/04 04:55:26;;;;;;;31.55;15.93;;;11.10;99.90;;;;;;5052579;28;20037;-60
2022/10/04 04:57:56;;;;;;;33.55;16.05;;;11.10;99.90;;;;;;5052365;28;20130;-59
2022/10/04 05:00:34;;;;;;;26.80;15.60;;;11.10;99.90;;;;;;5052747;28;20155;-60
2022/10/04 05:03:18;;;;;;;27.70;16.08;;;11.00;99.90;;;;;;5041193;28;20060;-60
2022/10/04 05:05:46;;;;;;;27.92;16.02;;;11.10;99.90;;;;;;5032057;28;20038;-60
2022/10/04 05:08:19;;;;;;;27.05;16.50;;;11.00;99.90;;;;;;5033725;28;20033;-60
2022/10/04 05:11:11;;;;;;;26.73;15.40;;;11.00;99.90;;;;;;5048284;28;20505;-60
2022/10/04 05:13:46;;;;;;;25.80;15.57;;;11.60;99.90;;;;;;5041763;28;20515;-60
2022/10/04 05:16:27;;;;;;;29.33;14.57;;;11.00;99.90;;;;;;5031608;28;20640;-60
2022/10/04 05:19:00;;;;;;;27.17;16.23;;;10.90;99.90;;;;;;5031960;28;20056;-60
2022/10/04 05:21:31;;;;;;;31.40;15.88;;;9.90;99.90;;;;;;5033267;28;20117;-60
2022/10/04 05:24:10;;;;;;;31.85;16.10;;;10.90;99.90;;;;;;5033061;28;20508;-60
2022/10/04 05:26:37;;;;;;;35.15;17.33;;;;;;;;;;5033273;28;20048;-60
2022/10/04 05:29:16;;;;;;;24.45;15.82;;;10.80;99.90;;;;;;5032956;28;20049;-60
2022/10/04 05:32:03;;;;;;;26.80;16.88;;;10.70;99.90;;;;;;5032095;28;20049;-60
2022/10/04 05:34:38;;;;;;;31.98;16.77;;;10.80;99.90;;;;;;5032993;28;20057;-60
2022/10/04 05:37:23;;;;;;;28.35;18.08;;;10.60;99.90;;;;;;5031927;28;20045;-60
2022/10/04 05:40:13;;;;;;;37.33;18.83;;;10.50;99.90;;;;;;5033188;28;20053;-60
2022/10/04 05:42:44;;;;;;;31.05;17.40;;;10.60;99.90;;;;;;5032897;28;20041;-60
2022/10/04 05:45:23;;;;;;;33.35;16.80;;;10.60;99.90;;;;;;5031239;28;20448;-60
2022/10/04 05:47:52;;;;;;;30.38;17.08;;;10.60;99.90;;;;;;5031424;28;20038;-60
2022/10/04 05:50:40;;;;;;;30.55;18.50;;;10.50;99.90;;;;;;5033071;28;20069;-61
2022/10/04 05:53:34;;;;;;;34.78;19.50;;;10.60;99.90;;;;;;5031756;28;20037;-61
2022/10/04 05:56:15;;;;;;;31.00;16.63;;;10.80;99.90;;;;;;5032799;28;20413;-60
2022/10/04 05:59:18;;;;;;;27.23;17.70;;;10.60;99.90;;;;;;5032985;28;20068;-59
2022/10/04 06:02:09;;;;;;;31.15;18.17;;;10.60;99.90;;;;;;5009470;28;20490;-59
2022/10/04 06:05:13;;;;;;;34.08;17.40;;;10.70;99.90;;;;;;5032685;28;20041;-59
2022/10/04 06:07:41;;;;;;;33.88;17.88;;;10.70;99.90;;;;;;5032733;28;20041;-59
2022/10/04 06:10:17;;;;;;;31.80;18.52;;;10.60;99.90;;;;;;5032546;28;20466;-59
2022/10/04 06:12:54;;;;;;;;;;;10.60;99.90;;;;;;5031924;28;20046;-59
2022/10/04 06:15:37;;;;;;;;;;;10.60;99.90;;;;;;5033369;28;19917;-59
2022/10/04 06:18:23;;;;;;;33.03;18.98;;;10.50;99.90;;;;;;5032686;28;19917;-59
2022/10/04 06:21:07;;;;;;;32.05;18.42;;;10.60;99.90;;;;;;5032576;28;20084;-59
2022/10/04 06:23:41;;;;;;;33.25;19.15;;;10.60;99.90;;;;;;5031936;28;20037;-59
2022/10/04 06:26:17;;;;;;;30.42;19.23;;;10.60;99.90;;;;;;5036224;28;20045;-59
2022/10/04 06:28:50;;;;;;;30.20;19.13;;;9.90;99.90;;;;;;5036182;28;20037;-59
2022/10/04 06:31:43;;;;;;;33.22;19.27;;;10.80;99.90;;;;;;5035579;28;20046;-59
2022/10/04 06:34:40;;;;;;;28.40;18.58;;;10.90;99.90;;;;;;5009218;28;20049;-59
2022/10/04 06:37:20;;;;;;;28.85;17.65;;;11.80;99.90;;;;;;5036147;28;20068;-59
2022/10/04 06:39:58;;;;;;;31.48;18.17;;;11.60;99.90;;;;;;5035974;28;20099;-61
2022/10/04 06:42:50;;;;;;;31.52;18.95;;;11.00;99.90;;;;;;5036211;28;20037;-60
2022/10/04 06:45:41;;;;;;;33.58;18.38;;;10.90;99.90;;;;;;5036081;28;20041;-60
2022/10/04 06:48:37;;;;;;;27.00;17.42;;;11.10;99.90;;;;;;5035771;28;20057;-60
2022/10/04 06:51:39;;;;;;;30.58;17.58;;;11.10;99.90;;;;;;5042814;28;20068;-60
2022/10/04 06:54:11;;;;;;;30.15;17.65;;;11.90;99.90;;;;;;5056352;28;20045;-60
2022/10/04 06:56:59;;;;;;;28.00;18.08;;;10.50;99.90;;;;;;5054734;28;20453;-60
2022/10/04 06:59:38;;;;;;;30.58;17.33;;;11.10;99.90;;;;;;5055778;28;20103;-60
2022/10/04 07:02:16;;;;;;;31.55;17.45;;;11.40;99.90;;;;;;5055631;28;20527;-60
2022/10/04 07:05:06;;;;;;;29.95;18.35;;;10.30;99.90;;;;;;5055341;28;20041;-60
2022/10/04 07:07:43;;;;;;;31.88;17.45;;;11.20;99.90;;;;;;5043871;28;20497;-60
2022/10/04 07:10:29;;;;;;;28.50;17.90;;;10.90;99.90;;;;;;5055392;28;20451;-60
2022/10/04 07:13:08;;;;;;;30.05;17.10;;;11.60;99.90;;;;;;5055545;28;20037;-60
2022/10/04 07:16:00;;;;;;;32.30;18.15;;;11.30;99.90;;;;;;5053857;28;20527;-60
2022/10/04 07:19:08;;;;;;;31.27;17.70;;;11.30;99.90;;;;;;5054838;28;20512;-60
2022/10/04 07:22:10;;;;;;;29.15;17.50;;;11.40;99.90;;;;;;5053820;28;20538;-60
2022/10/04 07:24:49;;;;;;;31.33;17.13;;;11.60;99.90;;;;;;5055264;28;20037;-60
2022/10/04 07:27:29;;;;;;;32.00;17.60;;;11.70;99.90;;;;;;5055256;28;20040;-60
2022/10/04 07:29:59;;;;;;;25.27;16.08;;;11.90;99.90;;;;;;5055009;28;20044;-60
2022/10/04 07:32:35;;;;;;;25.58;15.77;;;12.80;99.90;;;;;;5055085;28;20041;-60
2022/10/04 07:35:39;;;;;;;24.52;15.38;;;12.10;99.90;;;;;;5054419;28;20048;-60
2022/10/04 07:38:32;;;;;;;25.77;14.55;;;12.30;99.90;;;;;;5050651;28;20059;-61
2022/10/04 07:41:22;;;;;;;23.67;13.75;;;12.40;99.90;;;;;;5037594;28;20041;-60
2022/10/04 07:44:20;;;;;;;24.88;13.32;;;12.50;99.90;;;;;;5054836;28;20550;-61
2022/10/04 07:47:16;;;;;;;22.48;13.50;;;12.40;99.90;;;;;;5054964;28;20044;-60
2022/10/04 07:49:49;;;;;;;26.88;14.13;;;;;;;;;;5054817;28;20124;-59
2022/10/04 07:52:49;;;;;;;21.73;13.05;;;13.10;99.90;;;;;;5054719;28;20048;-59
2022/10/04 07:55:22;;;;;;;26.63;12.45;;;12.90;99.90;;;;;;5054707;28;20036;-59
2022/10/04 07:58:18;;;;;;;24.48;12.48;;;12.50;99.90;;;;;;5051268;28;20055;-59
2022/10/04 08:00:49;;;;;;;26.98;11.02;;;12.90;99.90;;;;;;5046188;28;20444;-59
2022/10/04 08:03:38;;;;;;;26.87;11.17;;;12.90;99.90;;;;;;5045318;28;20076;-59
2022/10/04 08:06:31;;;;;;;20.75;10.65;;;12.80;99.90;;;;;;5034409;28;20060;-59
2022/10/04 08:09:24;;;;;;;19.02;10.40;;;13.30;99.90;;;;;;5033092;28;20060;-59
2022/10/04 08:12:28;;;;;;;21.42;10.77;;;13.10;99.90;;;;;;5034319;28;20456;-59
2022/10/04 08:15:31;;;;;;;17.23;9.32;;;13.30;99.90;;;;;;5034427;28;20033;-59
2022/10/04 08:18:15;;;;;;;24.70;10.25;;;13.20;99.90;;;;;;5032921;28;20142;-59
2022/10/04 08:20:55;;;;;;;19.00;9.38;;;14.00;99.90;;;;;;5032073;28;20041;-59
2022/10/04 08:23:25;;;;;;;11.98;8.02;;;;;;;;;;5033464;28;20093;-59
2022/10/04 08:26:17;;;;;;;15.80;8.15;;;15.50;99.90;;;;;;5033491;28;20504;-58
2022/10/04 08:32:08;;;;;;;20.20;8.00;;;17.10;99.90;;;;;;5034035;28;20045;-59
2022/10/04 08:35:15;;;;;;;16.38;7.55;;;17.90;99.90;;;;;;5033328;28;20474;-59
2022/10/04 08:38:08;;;;;;;15.40;7.35;;;17.70;99.90;;;;;;5032595;28;20041;-59
2022/10/04 08:41:05;;;;;;;12.32;7.10;;;17.40;99.90;;;;;;5064668;28;20041;-59
2022/10/04 08:43:56;;;;;;;14.25;6.70;;;17.50;99.90;;;;;;5032829;28;20056;-59
2022/10/04 08:46:22;;;;;;;14.60;7.47;;;;;;;;;;5032857;28;20139;-59
2022/10/04 08:49:40;;;;;;;20.45;7.45;;;17.10;99.90;;;;;;5032636;28;20085;-59
2022/10/04 08:52:46;;;;;;;13.43;7.07;;;16.60;99.90;;;;;;5031353;28;20042;-60
2022/10/04 08:55:40;;;;;;;13.52;6.93;;;16.40;99.90;;;;;;5031510;28;20053;-61
2022/10/04 08:58:22;;;;;;;16.77;7.20;;;16.80;99.90;;;;;;5031371;28;20536;-61
2022/10/04 09:00:54;;;;;;;12.15;6.82;;;17.10;99.90;;;;;;5031137;28;20540;-61
2022/10/04 09:03:41;;;;;;;14.23;7.25;;;17.00;99.90;;;;;;5031473;28;20045;-61
2022/10/04 09:06:35;;;;;;;15.02;6.80;;;17.20;99.90;;;;;;5031299;28;20033;-61
2022/10/04 09:09:12;;;;;;;11.98;7.10;;;16.70;99.90;;;;;;5031125;28;20573;-61
2022/10/04 09:12:02;;;;;;;21.80;7.30;;;17.30;99.90;;;;;;5031073;28;20102;-61
2022/10/04 09:15:06;;;;;;;12.48;6.65;;;17.20;99.90;;;;;;5031125;28;20055;-62
2022/10/04 09:17:56;;;;;;;16.38;6.93;;;17.60;99.90;;;;;;5031120;28;20037;-62
2022/10/04 09:21:00;;;;;;;14.35;6.80;;;17.30;99.90;;;;;;5031012;28;20378;-61
2022/10/04 09:23:36;;;;;;;13.55;6.45;;;18.00;99.90;;;;;;5031039;28;20091;-62
2022/10/04 09:26:22;;;;;;;14.43;6.45;;;17.60;99.90;;;;;;5031156;28;20053;-62
2022/10/04 09:29:03;;;;;;;14.00;6.68;;;17.60;99.90;;;;;;5032882;28;20092;-62
2022/10/04 09:31:47;;;;;;;14.70;6.25;;;17.70;99.90;;;;;;5033020;28;20083;-62
2022/10/04 09:34:51;;;;;;;13.70;6.00;;;17.40;99.90;;;;;;5036001;28;20412;-63
2022/10/04 09:37:47;;;;;;;12.40;6.65;;;17.60;99.90;;;;;;5053056;28;20040;-62
2022/10/04 09:40:50;;;;;;;14.25;6.53;;;17.90;99.90;;;;;;5037235;28;20056;-61
2022/10/04 09:43:44;;;;;;;16.67;6.88;;;17.70;99.90;;;;;;5034911;28;20041;-62
2022/10/04 09:46:22;;;;;;;9.50;6.10;;;17.80;99.90;;;;;;5053035;28;20091;-62
2022/10/04 09:49:06;;;;;;;13.63;6.63;;;17.40;99.90;;;;;;5042300;28;20425;-62
2022/10/04 09:52:11;;;;;;;17.83;6.85;;;17.60;99.90;;;;;;5052412;28;20041;-62
2022/10/04 09:54:50;;;;;;;13.10;6.60;;;17.30;99.90;;;;;;5052997;28;20091;-62
2022/10/04 09:57:26;;;;;;;17.73;6.40;;;17.50;99.90;;;;;;5042923;28;20440;-62
2022/10/04 10:00:09;;;;;;;15.48;6.55;;;17.40;99.90;;;;;;5034272;28;20045;-61
2022/10/04 10:02:57;;;;;;;13.10;6.28;;;17.50;99.90;;;;;;5036949;28;20049;-61
2022/10/04 10:06:02;;;;;;;13.35;6.10;;;17.40;99.90;;;;;;5036876;28;20072;-61
2022/10/04 10:08:34;;;;;;;12.73;5.90;;;17.40;99.90;;;;;;5044298;28;20076;-61
2022/10/04 10:14:35;;;;;;;14.80;6.75;;;17.40;99.90;;;;;;5054821;28;20112;-62
2022/10/04 10:17:16;;;;;;;13.75;6.78;;;17.20;99.90;;;;;;5054997;28;20056;-61
2022/10/04 10:20:28;;;;;;;11.68;6.43;;;17.50;99.90;;;;;;5055407;28;20053;-62
2022/10/04 10:23:05;;;;;;;12.95;6.10;;;17.50;99.90;;;;;;5055277;28;20037;-61
2022/10/04 10:26:08;;;;;;;13.25;6.18;;;17.10;99.90;;;;;;5055680;28;20397;-61
2022/10/04 10:28:53;;;;;;;13.88;6.03;;;17.30;99.90;;;;;;5055594;28;20060;-62
2022/10/04 10:31:52;;;;;;;12.32;5.78;;;17.20;99.90;;;;;;5053901;28;20037;-62
2022/10/04 10:34:27;;;;;;;14.52;6.43;;;17.70;99.90;;;;;;5055918;28;20366;-61
2022/10/04 10:37:07;;;;;;;12.48;5.38;;;17.80;99.90;;;;;;5055853;28;20048;-61
2022/10/04 10:39:47;;;;;;;13.35;5.60;;;17.30;99.90;;;;;;5056368;28;20047;-62
2022/10/04 10:42:51;;;;;;;10.77;5.75;;;17.50;99.90;;;;;;5057348;28;20526;-62
2022/10/04 10:45:36;;;;;;;14.35;5.50;;;17.00;99.90;;;;;;5056190;28;20158;-62
2022/10/04 10:48:23;;;;;;;12.70;5.50;;;17.40;99.90;;;;;;5056053;28;20087;-62
2022/10/04 10:51:09;;;;;;;15.82;5.90;;;17.80;99.90;;;;;;5055873;28;20397;-62
2022/10/04 10:54:10;;;;;;;15.63;5.30;;;17.80;99.90;;;;;;5055798;28;20033;-62
2022/10/04 10:57:00;;;;;;;9.10;5.38;;;17.60;99.90;;;;;;5055736;28;20543;-62
2022/10/04 11:00:00;;;;;;;12.10;5.30;;;18.40;99.90;;;;;;5055659;28;20608;-62
2022/10/04 11:02:38;;;;;;;11.75;5.30;;;17.80;99.90;;;;;;5055512;28;20508;-62
2022/10/04 11:05:22;;;;;;;16.50;5.95;;;17.80;99.90;;;;;;5055683;28;20068;-62
2022/10/04 11:07:50;;;;;;;11.35;5.22;;;18.00;99.90;;;;;;5055568;28;20051;-62
2022/10/04 11:10:47;;;;;;;12.57;6.15;;;17.70;99.90;;;;;;5052865;28;20051;-61
2022/10/04 11:13:24;;;;;;;10.35;5.38;;;17.80;99.90;;;;;;5055374;28;20109;-62
2022/10/04 11:16:27;;;;;;;11.60;5.82;;;17.60;99.90;;;;;;5055709;28;20049;-61
2022/10/04 11:19:17;;;;;;;11.60;5.78;;;17.40;99.90;;;;;;5055046;28;20488;-61
2022/10/04 11:22:09;;;;;;;10.45;5.30;;;17.90;99.90;;;;;;5055236;28;20052;-61
2022/10/04 11:25:03;;;;;;;11.88;5.85;;;17.60;99.90;;;;;;5054263;28;20128;-61
2022/10/04 11:27:29;;;;;;;18.88;5.95;;;;;;;;;;5055367;28;20374;-62
2022/10/04 11:30:37;;;;;;;14.65;5.90;;;17.90;99.90;;;;;;5055206;28;20041;-62
2022/10/04 11:33:24;;;;;;;13.30;5.63;;;19.10;99.90;;;;;;5053832;28;20382;-62
2022/10/04 11:36:14;;;;;;;14.23;5.40;;;18.50;99.90;;;;;;5054736;28;20142;-63
2022/10/04 11:39:10;;;;;;;12.93;4.95;;;18.80;99.90;;;;;;5055232;28;20435;-62
2022/10/04 11:41:59;;;;;;;;;;;18.30;99.90;;;;;;5055284;28;20048;-62
2022/10/04 11:44:47;;;;;;;13.27;5.70;;;18.40;99.90;;;;;;5055016;28;19916;-62
2022/10/04 11:47:35;;;;;;;10.45;5.13;;;18.20;99.90;;;;;;5054743;28;20045;-62
2022/10/04 11:50:10;;;;;;;13.77;4.88;;;18.60;99.90;;;;;;5052280;28;20041;-62
2022/10/04 11:52:57;;;;;;;11.15;4.60;;;19.00;99.90;;;;;;5054146;28;20095;-62
2022/10/04 11:55:46;;;;;;;12.05;4.07;;;18.20;99.90;;;;;;5054327;28;20512;-62
2022/10/04 11:58:13;;;;;;;10.52;3.92;;;;;;;;;;5054946;28;20049;-62
2022/10/04 12:01:30;;;;;;;12.52;4.47;;;18.70;99.90;;;;;;5054587;28;20045;-62
2022/10/04 12:04:10;;;;;;;10.20;4.22;;;18.80;99.90;;;;;;5052331;28;20463;-62
2022/10/04 12:07:07;;;;;;;9.60;3.97;;;19.10;99.90;;;;;;5052267;28;20500;-62
2022/10/04 12:10:15;;;;;;;10.40;4.10;;;18.90;99.90;;;;;;5052085;28;20477;-62
2022/10/04 12:12:42;;;;;;;;;;;18.90;99.90;;;;;;5028101;28;20052;-62
2022/10/04 12:15:29;;;;;;;10.18;4.15;;;19.30;99.90;;;;;;5051747;28;19924;-62
2022/10/04 12:18:42;;;;;;;9.95;4.15;;;19.00;99.90;;;;;;5051956;28;20520;-62
2022/10/04 12:21:29;;;;;;;8.93;4.18;;;18.40;99.90;;;;;;5051671;28;20072;-62
2022/10/04 12:24:03;;;;;;;11.85;4.35;;;18.90;99.90;;;;;;5051886;28;20076;-62
2022/10/04 12:27:01;;;;;;;9.35;4.07;;;19.00;99.90;;;;;;5051749;28;20040;-62
2022/10/04 12:29:54;;;;;;;12.65;3.90;;;18.50;99.90;;;;;;5051726;28;20440;-62
2022/10/04 12:32:35;;;;;;;9.82;4.28;;;19.50;99.90;;;;;;5051775;28;20098;-62
2022/10/04 12:35:46;;;;;;;14.20;4.45;;;19.80;99.90;;;;;;5053198;28;20056;-62
2022/10/04 12:38:45;;;;;;;10.07;4.32;;;19.60;99.90;;;;;;5053653;28;20068;-62
2022/10/04 12:41:20;;;;;;;;;;;19.10;99.90;;;;;;5054043;28;20094;-62
2022/10/04 12:43:55;;;;;;;10.02;4.80;;;19.10;99.90;;;;;;5053563;28;19917;-62
2022/10/04 12:46:45;;;;;;;11.23;4.97;;;18.50;99.90;;;;;;5053441;28;20485;-62
2022/10/04 12:49:24;;;;;;;10.10;5.40;;;18.90;99.90;;;;;;5053515;28;20601;-60
2022/10/04 12:51:51;;;;;;;8.63;5.10;;;;;;;;;;5052494;28;20041;-60
2022/10/04 12:54:42;;;;;;;9.85;5.10;;;18.90;99.90;;;;;;5052196;28;20116;-62
2022/10/04 12:57:51;;;;;;;11.48;5.40;;;19.30;99.90;;;;;;5053642;28;20041;-62
2022/10/04 13:00:23;;;;;;;10.63;5.63;;;19.40;99.90;;;;;;5052213;28;20132;-62
2022/10/04 13:03:09;;;;;;;12.07;5.05;;;19.40;99.90;;;;;;5053088;28;20033;-60
2022/10/04 13:05:35;;;;;;;9.00;5.15;;;;;;;;;;5053265;28;20136;-60
2022/10/04 13:08:28;;;;;;;11.07;5.63;;;19.60;99.90;;;;;;5052660;28;20532;-62
2022/10/04 13:10:57;;;;;;;14.73;5.13;;;19.50;99.90;;;;;;5049350;28;20045;-62
2022/10/04 13:13:45;;;;;;;8.93;4.60;;;19.50;99.90;;;;;;5053370;28;20080;-63
2022/10/04 13:16:27;;;;;;;10.43;4.55;;;19.90;99.90;;;;;;5053057;28;20049;-63
2022/10/04 13:19:15;;;;;;;12.35;4.35;;;19.60;99.90;;;;;;5053226;28;20420;-62
2022/10/04 13:22:11;;;;;;;9.15;5.15;;;19.90;99.90;;;;;;5051869;28;20049;-62
2022/10/04 13:24:55;;;;;;;12.23;5.07;;;19.60;99.90;;;;;;5053221;28;20397;-62
2022/10/04 13:27:40;;;;;;;11.90;4.82;;;19.70;99.90;;;;;;5035229;28;20503;-62
2022/10/04 13:30:34;;;;;;;11.82;4.90;;;20.00;99.90;;;;;;5053171;28;20041;-62
2022/10/04 13:33:23;;;;;;;13.35;5.88;;;19.50;99.90;;;;;;5052616;28;20037;-62
2022/10/04 13:35:57;;;;;;;11.43;5.18;;;19.70;99.90;;;;;;5053255;28;20032;-62
2022/10/04 13:38:51;;;;;;;11.18;4.90;;;19.50;99.90;;;;;;5052966;28;20119;-62
2022/10/04 13:41:30;;;;;;;10.45;5.43;;;19.40;99.90;;;;;;5053041;28;20569;-62
2022/10/04 13:44:22;;;;;;;10.20;5.07;;;19.10;99.90;;;;;;5052828;28;20107;-62
2022/10/04 13:47:05;;;;;;;7.93;4.68;;;18.80;99.90;;;;;;5051566;28;20036;-62
2022/10/04 13:49:46;;;;;;;9.75;4.90;;;19.00;99.90;;;;;;5053131;28;20124;-61
2022/10/04 13:58:11;;;;;;;9.15;4.78;;;19.10;99.90;;;;;;5049787;28;20056;-60
2022/10/04 14:00:50;;;;;;;8.82;5.00;;;19.30;99.90;;;;;;5040658;28;20041;-62
2022/10/04 14:03:49;;;;;;;8.82;5.03;;;18.90;99.90;;;;;;5051369;28;20037;-62
2022/10/04 14:06:45;;;;;;;10.65;5.05;;;19.00;99.90;;;;;;5045856;28;20052;-62
2022/10/04 14:09:12;;;;;;;13.27;4.95;;;;;;;;;;5051507;28;20064;-62